| time (UTC) | temp C | wind direction | speed KPH | gust KPH | rain 1hr cm | rain 24hr cm | rain mn cm | humidity % | barometer mb |
| 20260906210009 | 25 | 126 | 6.4 | 14.5 | 0.00 | 1.52 | 1.52 | 77 | 1012.0 |
| 20260906204511 | 25 | 162 | 8.0 | 14.5 | 0.00 | 1.52 | 1.52 | 79 | 1012.3 |
| 20260906203007 | 24 | 74 | 0.0 | 4.8 | 0.00 | 1.52 | 1.52 | 84 | 1012.4 |
| 20260906201506 | 22 | 111 | 1.6 | 8.0 | 0.00 | 1.52 | 1.52 | 88 | 1012.9 |
| 20260906200006 | 22 | 221 | 3.2 | 12.9 | 0.00 | 1.52 | 1.52 | 90 | 1013.0 |
| 20260906194508 | 21 | 209 | 3.2 | 12.9 | 0.00 | 1.52 | 1.52 | 90 | 1013.8 |
| 20260906193004 | 21 | 176 | 6.4 | 12.9 | 0.00 | 1.52 | 1.52 | 91 | 1014.1 |
| 20260906191509 | 20 | 153 | 6.4 | 22.5 | 0.03 | 1.52 | 1.52 | 92 | 1014.9 |
| 20260906190003 | 21 | 169 | 6.4 | 14.5 | 0.89 | 1.52 | 1.52 | 96 | 1013.9 |
| 20260906184502 | 21 | 9 | 0.0 | 9.7 | 1.42 | 1.52 | 1.52 | 96 | 1013.0 |
| 20260906183002 | 21 | 31 | 0.0 | 6.4 | 1.52 | 1.52 | 1.52 | 95 | 1012.4 |
| 20260906181513 | 21 | 112 | 3.2 | 22.5 | 1.50 | 1.50 | 1.50 | 94 | 1013.9 |
| 20260906174558 | 23 | 325 | 4.8 | 20.9 | 0.08 | 0.08 | 0.08 | 86 | 1013.2 |
| 20260906173056 | 25 | 12 | 9.7 | 24.1 | 0.00 | 0.00 | 0.00 | 79 | 1013.1 |
| 20260906171607 | 29 | 346 | 0.0 | 1.6 | 0.00 | 0.00 | 0.00 | 71 | 1012.8 |
| 20260906170106 | 30 | 355 | 0.0 | 4.8 | 0.00 | 0.00 | 0.00 | 68 | 1012.9 |
| 20260906164550 | 30 | 104 | 0.0 | 6.4 | 0.00 | 0.00 | 0.00 | 69 | 1012.7 |
| 20260906163047 | 29 | 75 | 1.6 | 8.0 | 0.00 | 0.00 | 0.00 | 72 | 1012.5 |
| 20260906161545 | 28 | 148 | 3.2 | 9.7 | 0.00 | 0.00 | 0.00 | 73 | 1012.1 |
| 20260906160042 | 28 | 92 | 3.2 | 9.7 | 0.00 | 0.00 | 0.00 | 75 | 1011.7 |
| 20260906154542 | 27 | 100 | 3.2 | 8.0 | 0.00 | 0.00 | 0.00 | 78 | 1011.6 |
| 20260906153035 | 26 | 136 | 1.6 | 6.4 | 0.00 | 0.00 | 0.00 | 80 | 1011.7 |
| 20260906151530 | 26 | 15 | 1.6 | 9.7 | 0.00 | 0.00 | 0.00 | 82 | 1011.8 |
| 20260906150027 | 25 | 61 | 1.6 | 4.8 | 0.00 | 0.00 | 0.00 | 83 | 1011.9 |
| 20260906144524 | 24 | 91 | 0.0 | 6.4 | 0.00 | 0.00 | 0.00 | 86 | 1012.0 |
| 20260906143020 | 23 | 355 | 0.0 | 3.2 | 0.00 | 0.00 | 0.00 | 90 | 1012.2 |
| 20260906141519 | 23 | 310 | 0.0 | 3.2 | 0.00 | 0.00 | 0.00 | 90 | 1012.5 |
| 20260906140012 | 22 | 60 | 1.6 | 6.4 | 0.00 | 0.00 | 0.00 | 90 | 1012.3 |
| 20260906134507 | 21 | 333 | 1.6 | 11.3 | 0.00 | 0.00 | 0.00 | 93 | 1012.2 |
| 20260906133006 | 21 | 96 | 4.8 | 9.7 | 0.00 | 0.00 | 0.00 | 94 | 1011.9 |
| 20260906131509 | 20 | 360 | 0.0 | 0.0 | 0.00 | 0.00 | 0.00 | 95 | 1011.9 |
| 20260906130004 | 20 | 355 | 0.0 | 4.8 | 0.00 | 0.00 | 0.00 | 95 | 1011.9 |
| 20260906124504 | 20 | 106 | 3.2 | 9.7 | 0.00 | 0.00 | 0.00 | 95 | 1012.0 |
| 20260906123002 | 19 | 100 | 4.8 | 12.9 | 0.00 | 0.00 | 0.00 | 95 | 1011.9 |
| 20260906121502 | 19 | 108 | 0.0 | 0.0 | 0.00 | 0.00 | 0.00 | 95 | 1012.6 |
| 20260906120001 | 19 | 74 | 0.0 | 0.0 | 0.00 | 0.00 | 0.00 | 95 | 1012.4 |
| 20260906114602 | 19 | 87 | 0.0 | 3.2 | 0.00 | 0.00 | 0.00 | 95 | 1012.0 |
| 20260906113100 | 19 | 72 | 1.6 | 4.8 | 0.00 | 0.00 | 0.00 | 95 | 1012.0 |
| 20260906111601 | 18 | 81 | 0.0 | 0.0 | 0.00 | 0.00 | 0.00 | 95 | 1012.1 |
| 20260906110058 | 19 | 103 | 0.0 | 0.0 | 0.00 | 0.00 | 0.00 | 95 | 1012.2 |
| 20260906104603 | 18 | 88 | 0.0 | 0.0 | 0.00 | 0.00 | 0.00 | 95 | 1012.1 |
| 20260906103058 | 18 | 90 | 0.0 | 4.8 | 0.00 | 0.00 | 0.00 | 95 | 1012.2 |
| 20260906101556 | 19 | 84 | 0.0 | 6.4 | 0.00 | 0.00 | 0.00 | 95 | 1012.2 |
| 20260906100055 | 19 | 69 | 0.0 | 4.8 | 0.00 | 0.00 | 0.00 | 95 | 1012.4 |
| 20260906094608 | 19 | 96 | 4.8 | 9.7 | 0.00 | 0.00 | 0.00 | 95 | 1012.3 |
| 20260906093127 | 19 | 67 | 1.6 | 9.7 | 0.00 | 0.00 | 0.00 | 94 | 1012.3 |
| 20260906091655 | 19 | 62 | 0.0 | 6.4 | 0.00 | 0.00 | 0.00 | 94 | 1012.4 |
| 20260906090053 | 19 | 132 | 3.2 | 6.4 | 0.00 | 0.00 | 0.00 | 95 | 1012.3 |
| 20260906084551 | 19 | 95 | 1.6 | 4.8 | 0.00 | 0.00 | 0.00 | 95 | 1012.2 |
| 20260906083050 | 19 | 63 | 0.0 | 12.9 | 0.00 | 0.00 | 0.00 | 94 | 1012.2 |
| 20260906081548 | 19 | 40 | 3.2 | 11.3 | 0.00 | 0.00 | 0.00 | 94 | 1012.2 |
| 20260906080046 | 19 | 74 | 3.2 | 12.9 | 0.00 | 0.00 | 0.00 | 94 | 1012.0 |
| 20260906074545 | 19 | 79 | 4.8 | 16.1 | 0.00 | 0.00 | 0.00 | 94 | 1012.0 |
| 20260906073044 | 19 | 118 | 4.8 | 9.7 | 0.00 | 0.00 | 0.00 | 93 | 1012.1 |
| 20260906071541 | 20 | 81 | 4.8 | 9.7 | 0.00 | 0.00 | 0.00 | 93 | 1011.9 |
| 20260906070039 | 20 | 108 | 3.2 | 12.9 | 0.00 | 0.00 | 0.00 | 93 | 1012.3 |
| 20260906064537 | 20 | 98 | 4.8 | 14.5 | 0.00 | 0.00 | 0.00 | 92 | 1012.3 |
| 20260906063039 | 20 | 120 | 6.4 | 14.5 | 0.00 | 0.00 | 0.00 | 92 | 1012.5 |
| 20260906061533 | 20 | 57 | 3.2 | 12.9 | 0.00 | 0.00 | 0.00 | 92 | 1012.1 |
| 20260906060032 | 20 | 139 | 3.2 | 11.3 | 0.00 | 0.00 | 0.00 | 92 | 1012.4 |
| 20260906054532 | 20 | 153 | 1.6 | 9.7 | 0.00 | 0.00 | 0.00 | 91 | 1012.3 |
| 20260906053027 | 20 | 94 | 4.8 | 11.3 | 0.00 | 0.00 | 0.00 | 91 | 1012.3 |
| 20260906051526 | 20 | 97 | 4.8 | 12.9 | 0.00 | 0.00 | 0.00 | 90 | 1012.2 |
| 20260906050025 | 21 | 84 | 3.2 | 9.7 | 0.00 | 0.00 | 0.00 | 90 | 1012.0 |
| 20260906044522 | 21 | 152 | 4.8 | 12.9 | 0.00 | 0.00 | 0.00 | 89 | 1012.3 |
| 20260906043022 | 21 | 115 | 4.8 | 12.9 | 0.00 | 0.00 | 0.00 | 89 | 1012.1 |
| 20260906041522 | 21 | 65 | 4.8 | 14.5 | 0.00 | 0.00 | 0.00 | 87 | 1011.9 |
| 20260906040028 | 22 | 113 | 4.8 | 16.1 | 0.00 | 0.00 | 0.00 | 86 | 1012.0 |
| 20260906034521 | 22 | 76 | 6.4 | 16.1 | 0.00 | 0.00 | 0.00 | 86 | 1012.0 |
| 20260906033030 | 22 | 78 | 4.8 | 19.3 | 0.00 | 0.00 | 0.00 | 86 | 1011.8 |
| 20260906031520 | 22 | 51 | 8.0 | 19.3 | 0.00 | 0.00 | 0.00 | 85 | 1011.5 |
| 20260906030020 | 22 | 80 | 3.2 | 14.5 | 0.00 | 0.00 | 0.00 | 85 | 1011.5 |
| 20260906024535 | 22 | 44 | 4.8 | 9.7 | 0.00 | 0.00 | 0.00 | 84 | 1011.4 |
| 20260906023023 | 23 | 115 | 4.8 | 9.7 | 0.00 | 0.00 | 0.00 | 82 | 1011.3 |
| 20260906021519 | 23 | 80 | 0.0 | 9.7 | 0.00 | 0.00 | 0.00 | 77 | 1011.0 |
| 20260906020018 | 24 | 123 | 4.8 | 11.3 | 0.00 | 0.00 | 0.00 | 76 | 1010.6 |
| 20260906014525 | 25 | 83 | 6.4 | 12.9 | 0.00 | 0.00 | 0.00 | 75 | 1010.7 |
| 20260906013036 | 25 | 128 | 4.8 | 12.9 | 0.00 | 0.00 | 0.00 | 73 | 1010.4 |
| 20260906011517 | 26 | 112 | 4.8 | 11.3 | 0.00 | 0.00 | 0.00 | 70 | 1010.5 |
| 20260906010022 | 27 | 133 | 4.8 | 14.5 | 0.00 | 0.00 | 0.00 | 65 | 1010.3 |
| 20260906004516 | 27 | 121 | 8.0 | 14.5 | 0.00 | 0.00 | 0.00 | 62 | 1010.2 |
| 20260906003016 | 27 | 156 | 4.8 | 17.7 | 0.00 | 0.00 | 0.00 | 65 | 1010.4 |
| 20260906001518 | 28 | 168 | 9.7 | 19.3 | 0.00 | 0.00 | 0.00 | 68 | 1010.7 |
| 20260906000015 | 28 | 203 | 8.0 | 24.1 | 0.00 | 0.00 | 0.00 | 69 | 1011.0 |
| 20260905234515 | 28 | 158 | 17.7 | 32.2 | 0.00 | 0.00 | 0.00 | 70 | 1011.2 |
| 20260905233013 | 28 | 108 | 17.7 | 30.6 | 0.00 | 0.00 | 0.00 | 68 | 1011.0 |
| 20260905231513 | 30 | 122 | 19.3 | 30.6 | 0.00 | 0.00 | 0.00 | 63 | 1010.6 |
| 20260905230013 | 31 | 153 | 16.1 | 25.7 | 0.00 | 0.00 | 0.00 | 52 | 1010.2 |
| 20260905224512 | 32 | 138 | 16.1 | 27.4 | 0.00 | 0.00 | 0.00 | 51 | 1010.1 |
| 20260905223011 | 32 | 157 | 16.1 | 27.4 | 0.00 | 0.00 | 0.00 | 50 | 1009.4 |
| 20260905221510 | 33 | 131 | 16.1 | 27.4 | 0.00 | 0.00 | 0.00 | 49 | 1009.0 |
| 20260905220009 | 33 | 106 | 11.3 | 24.1 | 0.00 | 0.00 | 0.00 | 49 | 1009.2 |
| 20260905214507 | 33 | 122 | 12.9 | 24.1 | 0.00 | 0.00 | 0.00 | 48 | 1009.5 |
| 20260905213005 | 33 | 142 | 9.7 | 20.9 | 0.00 | 0.00 | 0.00 | 47 | 1009.7 |
| 20260905211502 | 33 | 148 | 11.3 | 30.6 | 0.00 | 0.00 | 0.00 | 43 | 1009.8 |